»·PEaware :: AAL480 KPHX-KSAN

AAL480 :: KPHX-KSAN

FLIGHT INFORMATION

Flight Status: Arrived
Operator:
American Airlines
More flights by this operator :: More flights under this callsign
Pilot: Austin W. (7615)
Aircraft: BOEING 737-800
(B738)
More flights by this aircraft type
Origin: KPHX Phoenix Sky Harbor Intl
United States
Destination: KSAN San Diego Intl-Lindbergh
United States
More flights between these airports :: More routes between these airports
Route: FYRBD1 MOHAK J2 HOGGZ LUCKI1
File this flight plan on PilotEdge
Remarks: HI NOLAN
Altitude:
(Current/Filed)
28,000ft
Speed:
(Current/Filed)
455kts
Departed: 25-Oct-20 09:58 AM
Arrived: 25-Oct-20 10:57 AM
Distance/Time
Traveled:
264nm/0:59
Distance/Time
To Go:
Arrived

Flight Plot

Page will automatically refresh every two minutes.

Flight plan parsing failed; only flown route is shown


Map Options




Map Legend


Flown Route
Filed Route
Departure Airport
Arrival Airport
Navaid (VOR, NDB)
Fix

Horizontal Profiles

Position Reports

Time Latitude Longitude Heading Altitude Ground
Speed
25-Oct-20 09:34 33.438278 -112.001490 223 1141ft 0kts
25-Oct-20 09:35 33.438278 -112.001490 223 1141ft 0kts
25-Oct-20 09:36 33.438278 -112.001490 223 1141ft 0kts
25-Oct-20 09:37 33.438278 -112.001490 223 1141ft 0kts
25-Oct-20 09:38 33.438278 -112.001490 223 1141ft 0kts
25-Oct-20 09:39 33.438278 -112.001490 223 1141ft 0kts
25-Oct-20 09:40 33.438278 -112.001490 223 1141ft 0kts
25-Oct-20 09:41 33.438278 -112.001490 223 1141ft 0kts
25-Oct-20 09:42 33.438278 -112.001490 223 1141ft 0kts
25-Oct-20 09:43 33.438278 -112.001490 223 1141ft 0kts
25-Oct-20 09:44 33.438278 -112.001490 223 1141ft 0kts
25-Oct-20 09:45 33.438297 -112.001469 224 1141ft 2kts
25-Oct-20 09:46 33.438719 -112.000961 226 1141ft 2kts
25-Oct-20 09:47 33.439013 -112.000353 262 1141ft 2kts
25-Oct-20 09:48 33.439021 -112.000175 270 1141ft 0kts
25-Oct-20 09:49 33.439021 -112.000175 270 1141ft 0kts
25-Oct-20 09:50 33.439021 -112.000175 270 1141ft 0kts
25-Oct-20 09:51 33.439005 -112.001950 268 1141ft 9kts
25-Oct-20 09:52 33.439711 -112.004598 272 1141ft 13kts
25-Oct-20 09:53 33.439713 -112.011072 271 1141ft 22kts
25-Oct-20 09:54 33.439724 -112.018762 270 1141ft 26kts
25-Oct-20 09:55 33.439733 -112.026772 269 1141ft 22kts
25-Oct-20 09:56 33.440851 -112.027924 89 1141ft 29kts
25-Oct-20 09:57 33.440824 -111.979612 90 2370ft 194kts
25-Oct-20 09:58 33.438230 -111.909355 98 4580ft 242kts
25-Oct-20 09:59 33.403069 -111.847589 162 7620ft 240kts
25-Oct-20 10:00 33.353942 -111.888649 263 9899ft 274kts
25-Oct-20 10:01 33.359222 -111.988331 253 11690ft 320kts
25-Oct-20 10:02 33.323628 -112.084955 237 14490ft 327kts
25-Oct-20 10:03 33.268470 -112.173481 232 17109ft 338kts
25-Oct-20 10:04 33.210675 -112.264245 234 19616ft 344kts
25-Oct-20 10:05 33.153589 -112.356850 234 21913ft 348kts
25-Oct-20 10:06 33.095691 -112.450560 234 23934ft 353kts
25-Oct-20 10:07 33.036991 -112.545336 234 25677ft 359kts
25-Oct-20 10:08 32.977428 -112.642518 239 27242ft 365kts
25-Oct-20 10:09 32.946341 -112.759908 256 27892ft 385kts
25-Oct-20 10:10 32.928067 -112.887425 258 27885ft 389kts
25-Oct-20 10:11 32.910618 -113.015060 258 27883ft 392kts
25-Oct-20 10:12 32.893145 -113.143085 258 27881ft 392kts
25-Oct-20 10:13 32.875541 -113.271332 258 27881ft 394kts
25-Oct-20 10:14 32.857730 -113.400170 258 27881ft 395kts
25-Oct-20 10:15 32.839770 -113.529055 258 27880ft 394kts
25-Oct-20 10:16 32.821689 -113.657786 257 27881ft 395kts
25-Oct-20 10:17 32.802933 -113.786177 257 27881ft 393kts
25-Oct-20 10:18 32.784408 -113.913957 257 27880ft 392kts
25-Oct-20 10:19 32.775858 -114.044282 265 27883ft 401kts
25-Oct-20 10:20 32.779346 -114.178169 269 27886ft 406kts
25-Oct-20 10:21 32.784777 -114.312806 270 27890ft 408kts
25-Oct-20 10:22 32.807068 -114.446206 281 27890ft 415kts
25-Oct-20 10:23 32.841029 -114.577919 284 27889ft 418kts
25-Oct-20 10:24 32.869617 -114.711924 275 27890ft 416kts
25-Oct-20 10:25 32.876168 -114.849131 267 27890ft 415kts
25-Oct-20 10:26 32.873555 -114.986500 267 27890ft 416kts
25-Oct-20 10:27 32.870526 -115.124327 267 27883ft 411kts
25-Oct-20 10:28 32.867433 -115.254805 267 27893ft 399kts
25-Oct-20 10:29 32.858395 -115.385550 260 27631ft 387kts
25-Oct-20 10:30 32.841075 -115.509552 260 25876ft 375kts
25-Oct-20 10:31 32.820495 -115.634892 259 24459ft 384kts
25-Oct-20 10:32 32.800313 -115.757466 259 22310ft 369kts
25-Oct-20 10:33 32.783616 -115.875172 264 20219ft 356kts
25-Oct-20 10:34 32.774651 -115.990677 264 18184ft 344kts
25-Oct-20 10:35 32.766230 -116.102073 264 16254ft 333kts
25-Oct-20 10:36 32.758020 -116.210160 264 14334ft 322kts
25-Oct-20 10:37 32.750163 -116.311764 263 13083ft 294kts
25-Oct-20 10:38 32.742625 -116.407802 263 11433ft 286kts
25-Oct-20 10:39 32.735529 -116.498623 263 10490ft 258kts
25-Oct-20 10:40 32.727649 -116.580494 262 9564ft 241kts
25-Oct-20 10:41 32.719975 -116.659780 262 8371ft 239kts
25-Oct-20 10:42 32.713790 -116.738503 263 7193ft 239kts
25-Oct-20 10:43 32.706893 -116.817243 256 6009ft 239kts
25-Oct-20 10:44 32.684628 -116.891934 251 5014ft 231kts
25-Oct-20 10:45 32.680975 -116.964120 279 4171ft 227kts
25-Oct-20 10:46 32.696355 -117.035166 284 2794ft 218kts
25-Oct-20 10:47 32.712508 -117.102686 285 1496ft 197kts
25-Oct-20 10:48 32.726702 -117.161391 285 392ft 167kts
25-Oct-20 10:50 32.739181 -117.215801 281 1133ft 201kts
25-Oct-20 10:51 32.751377 -117.288862 303 3010ft 241kts
25-Oct-20 10:52 32.795709 -117.267217 79 3031ft 233kts
25-Oct-20 10:53 32.805986 -117.190883 83 2095ft 231kts
25-Oct-20 10:54 32.779837 -117.130821 155 1653ft 174kts
25-Oct-20 10:55 32.738254 -117.141544 218 1152ft 160kts
25-Oct-20 10:56 32.732855 -117.186651 285 29ft 141kts
25-Oct-20 10:57 32.735722 -117.202168 196 27ft 0kts
25-Oct-20 10:58 32.734037 -117.202788 188 27ft 7kts

Navigation Log

Ident Type
Flight plan parsing failed, navigation log unavailable